sensor_id;sensor_type;location;lat;lon;timestamp;pressure;altitude;pressure_sealevel;temperature;humidity
76694;BME280;69667;52.136;5.424;2023-10-19T00:00:56;99393.06;;;9.65;100.00
76694;BME280;69667;52.136;5.424;2023-10-19T00:03:27;99385.56;;;9.69;100.00
76694;BME280;69667;52.136;5.424;2023-10-19T00:05:56;99387.25;;;9.70;100.00
76694;BME280;69667;52.136;5.424;2023-10-19T00:08:25;99376.19;;;9.73;100.00
76694;BME280;69667;52.136;5.424;2023-10-19T00:11:03;99372.19;;;9.77;100.00
76694;BME280;69667;52.136;5.424;2023-10-19T00:13:38;99379.16;;;9.79;100.00
76694;BME280;69667;52.136;5.424;2023-10-19T00:16:09;99377.13;;;9.81;100.00
76694;BME280;69667;52.136;5.424;2023-10-19T00:18:45;99375.16;;;9.83;100.00
76694;BME280;69667;52.136;5.424;2023-10-19T00:21:16;99367.94;;;9.84;100.00
76694;BME280;69667;52.136;5.424;2023-10-19T00:23:55;99364.94;;;9.87;100.00
76694;BME280;69667;52.136;5.424;2023-10-19T00:26:32;99357.41;;;9.90;100.00
76694;BME280;69667;52.136;5.424;2023-10-19T00:29:01;99361.78;;;9.91;100.00
76694;BME280;69667;52.136;5.424;2023-10-19T00:31:45;99360.66;;;9.94;100.00
76694;BME280;69667;52.136;5.424;2023-10-19T00:34:15;99368.44;;;9.97;100.00
76694;BME280;69667;52.136;5.424;2023-10-19T00:36:45;99363.75;;;9.99;100.00
76694;BME280;69667;52.136;5.424;2023-10-19T00:39:15;99366.16;;;10.02;100.00
76694;BME280;69667;52.136;5.424;2023-10-19T00:41:48;99372.25;;;10.04;100.00
76694;BME280;69667;52.136;5.424;2023-10-19T00:44:17;99359.47;;;10.06;100.00
76694;BME280;69667;52.136;5.424;2023-10-19T00:47:03;99362.91;;;10.08;100.00
76694;BME280;69667;52.136;5.424;2023-10-19T00:49:34;99359.75;;;10.12;100.00
76694;BME280;69667;52.136;5.424;2023-10-19T00:52:06;99354.22;;;10.14;100.00
76694;BME280;69667;52.136;5.424;2023-10-19T00:54:40;99354.78;;;10.17;100.00
76694;BME280;69667;52.136;5.424;2023-10-19T00:57:18;99339.16;;;10.21;100.00
76694;BME280;69667;52.136;5.424;2023-10-19T01:00:01;99345.91;;;10.25;100.00
76694;BME280;69667;52.136;5.424;2023-10-19T01:02:39;99339.41;;;10.28;100.00
76694;BME280;69667;52.136;5.424;2023-10-19T01:05:14;99345.34;;;10.31;100.00
76694;BME280;69667;52.136;5.424;2023-10-19T01:07:43;99337.09;;;10.33;100.00
76694;BME280;69667;52.136;5.424;2023-10-19T01:10:12;99333.94;;;10.37;100.00
76694;BME280;69667;52.136;5.424;2023-10-19T01:12:51;99336.31;;;10.40;100.00
76694;BME280;69667;52.136;5.424;2023-10-19T01:15:22;99340.44;;;10.44;100.00
76694;BME280;69667;52.136;5.424;2023-10-19T01:17:58;99337.44;;;10.47;100.00
76694;BME280;69667;52.136;5.424;2023-10-19T01:20:30;99329.19;;;10.49;100.00
76694;BME280;69667;52.136;5.424;2023-10-19T01:23:01;99332.59;;;10.51;100.00
76694;BME280;69667;52.136;5.424;2023-10-19T01:25:51;99327.88;;;10.53;100.00
76694;BME280;69667;52.136;5.424;2023-10-19T01:28:24;99322.88;;;10.58;100.00
76694;BME280;69667;52.136;5.424;2023-10-19T01:31:11;99329.81;;;10.60;100.00
76694;BME280;69667;52.136;5.424;2023-10-19T01:33:59;99325.97;;;10.63;100.00
76694;BME280;69667;52.136;5.424;2023-10-19T01:36:34;99320.25;;;10.66;100.00
76694;BME280;69667;52.136;5.424;2023-10-19T01:39:11;99321.78;;;10.68;100.00
76694;BME280;69667;52.136;5.424;2023-10-19T01:41:40;99317.97;;;10.71;100.00
76694;BME280;69667;52.136;5.424;2023-10-19T01:44:09;99311.53;;;10.72;100.00
76694;BME280;69667;52.136;5.424;2023-10-19T01:46:42;99312.09;;;10.75;100.00
76694;BME280;69667;52.136;5.424;2023-10-19T01:49:15;99304.69;;;10.77;100.00
76694;BME280;69667;52.136;5.424;2023-10-19T01:51:54;99309.63;;;10.82;100.00
76694;BME280;69667;52.136;5.424;2023-10-19T01:54:23;99308.63;;;10.83;100.00
76694;BME280;69667;52.136;5.424;2023-10-19T01:56:53;99302.75;;;10.87;100.00
76694;BME280;69667;52.136;5.424;2023-10-19T01:59:27;99301.47;;;10.91;100.00
76694;BME280;69667;52.136;5.424;2023-10-19T02:01:58;99300.13;;;10.95;100.00
76694;BME280;69667;52.136;5.424;2023-10-19T02:04:26;99303.53;;;10.97;100.00
76694;BME280;69667;52.136;5.424;2023-10-19T02:06:54;99299.66;;;11.00;100.00
76694;BME280;69667;52.136;5.424;2023-10-19T02:09:27;99303.75;;;11.04;100.00
76694;BME280;69667;52.136;5.424;2023-10-19T02:11:59;99307.84;;;11.08;100.00
76694;BME280;69667;52.136;5.424;2023-10-19T02:14:28;99300.13;;;11.13;100.00
76694;BME280;69667;52.136;5.424;2023-10-19T02:17:00;99295.09;;;11.18;100.00
76694;BME280;69667;52.136;5.424;2023-10-19T02:19:31;99294.31;;;11.25;100.00
76694;BME280;69667;52.136;5.424;2023-10-19T02:22:02;99295.00;;;11.27;100.00
76694;BME280;69667;52.136;5.424;2023-10-19T02:24:31;99295.84;;;11.28;100.00
76694;BME280;69667;52.136;5.424;2023-10-19T02:27:00;99292.66;;;11.32;100.00
76694;BME280;69667;52.136;5.424;2023-10-19T02:29:29;99287.63;;;11.37;100.00
76694;BME280;69667;52.136;5.424;2023-10-19T02:31:58;99297.13;;;11.41;100.00
76694;BME280;69667;52.136;5.424;2023-10-19T02:34:32;99292.25;;;11.45;100.00
76694;BME280;69667;52.136;5.424;2023-10-19T02:37:02;99297.03;;;11.51;100.00
76694;BME280;69667;52.136;5.424;2023-10-19T02:39:30;99292.16;;;11.55;100.00
76694;BME280;69667;52.136;5.424;2023-10-19T02:41:59;99293.34;;;11.60;100.00
76694;BME280;69667;52.136;5.424;2023-10-19T02:44:29;99289.66;;;11.61;100.00
76694;BME280;69667;52.136;5.424;2023-10-19T02:46:58;99285.94;;;11.62;100.00
76694;BME280;69667;52.136;5.424;2023-10-19T02:49:29;99280.06;;;11.67;100.00
76694;BME280;69667;52.136;5.424;2023-10-19T02:51:58;99275.19;;;11.70;100.00
76694;BME280;69667;52.136;5.424;2023-10-19T02:54:31;99278.59;;;11.72;100.00
76694;BME280;69667;52.136;5.424;2023-10-19T02:57:02;99275.72;;;11.74;100.00
76694;BME280;69667;52.136;5.424;2023-10-19T02:59:35;99273.72;;;11.76;100.00
76694;BME280;69667;52.136;5.424;2023-10-19T03:02:04;99278.78;;;11.79;100.00
76694;BME280;69667;52.136;5.424;2023-10-19T03:04:35;99272.06;;;11.83;100.00
76694;BME280;69667;52.136;5.424;2023-10-19T03:07:04;99272.44;;;11.88;100.00
76694;BME280;69667;52.136;5.424;2023-10-19T03:09:33;99274.81;;;11.91;100.00
76694;BME280;69667;52.136;5.424;2023-10-19T03:12:05;99275.16;;;11.96;100.00
76694;BME280;69667;52.136;5.424;2023-10-19T03:14:37;99264.34;;;11.96;100.00
76694;BME280;69667;52.136;5.424;2023-10-19T03:17:06;99275.00;;;11.97;100.00
76694;BME280;69667;52.136;5.424;2023-10-19T03:19:36;99269.41;;;11.99;100.00
76694;BME280;69667;52.136;5.424;2023-10-19T03:22:06;99265.41;;;12.03;100.00
76694;BME280;69667;52.136;5.424;2023-10-19T03:24:36;99259.66;;;12.06;100.00
76694;BME280;69667;52.136;5.424;2023-10-19T03:27:12;99264.03;;;12.07;100.00
76694;BME280;69667;52.136;5.424;2023-10-19T03:29:51;99254.94;;;12.08;100.00
76694;BME280;69667;52.136;5.424;2023-10-19T03:32:24;99256.44;;;12.10;100.00
76694;BME280;69667;52.136;5.424;2023-10-19T03:35:11;99256.97;;;12.14;100.00
76694;BME280;69667;52.136;5.424;2023-10-19T03:37:42;99249.22;;;12.19;100.00
76694;BME280;69667;52.136;5.424;2023-10-19T03:40:15;99245.34;;;12.21;100.00
76694;BME280;69667;52.136;5.424;2023-10-19T03:42:52;99252.59;;;12.21;100.00
76694;BME280;69667;52.136;5.424;2023-10-19T03:45:22;99246.34;;;12.20;100.00
76694;BME280;69667;52.136;5.424;2023-10-19T03:47:51;99250.75;;;12.21;100.00
76694;BME280;69667;52.136;5.424;2023-10-19T03:50:22;99251.41;;;12.23;100.00
76694;BME280;69667;52.136;5.424;2023-10-19T03:52:52;99242.47;;;12.23;100.00
76694;BME280;69667;52.136;5.424;2023-10-19T03:55:21;99238.56;;;12.25;100.00
76694;BME280;69667;52.136;5.424;2023-10-19T03:57:51;99234.88;;;12.26;100.00
76694;BME280;69667;52.136;5.424;2023-10-19T04:00:23;99227.75;;;12.25;100.00
76694;BME280;69667;52.136;5.424;2023-10-19T04:02:53;99229.47;;;12.26;100.00
76694;BME280;69667;52.136;5.424;2023-10-19T04:05:23;99225.56;;;12.29;100.00
76694;BME280;69667;52.136;5.424;2023-10-19T04:07:53;99232.81;;;12.28;100.00
76694;BME280;69667;52.136;5.424;2023-10-19T04:10:25;99232.53;;;12.31;100.00
76694;BME280;69667;52.136;5.424;2023-10-19T04:13:02;99231.16;;;12.35;100.00
76694;BME280;69667;52.136;5.424;2023-10-19T04:15:31;99229.47;;;12.34;100.00
76694;BME280;69667;52.136;5.424;2023-10-19T04:18:04;99224.94;;;12.35;100.00
76694;BME280;69667;52.136;5.424;2023-10-19T04:20:38;99218.16;;;12.39;100.00
76694;BME280;69667;52.136;5.424;2023-10-19T04:23:22;99218.16;;;12.39;100.00
76694;BME280;69667;52.136;5.424;2023-10-19T04:25:55;99215.63;;;12.37;100.00
76694;BME280;69667;52.136;5.424;2023-10-19T04:28:24;99212.56;;;12.32;100.00
76694;BME280;69667;52.136;5.424;2023-10-19T04:30:58;99211.00;;;12.22;100.00
76694;BME280;69667;52.136;5.424;2023-10-19T04:33:33;99220.81;;;12.15;100.00
76694;BME280;69667;52.136;5.424;2023-10-19T04:36:02;99229.41;;;12.10;100.00
76694;BME280;69667;52.136;5.424;2023-10-19T04:38:30;99228.41;;;12.03;100.00
76694;BME280;69667;52.136;5.424;2023-10-19T04:41:04;99239.50;;;12.00;100.00
76694;BME280;69667;52.136;5.424;2023-10-19T04:43:38;99228.50;;;11.94;100.00
76694;BME280;69667;52.136;5.424;2023-10-19T04:46:08;99230.84;;;11.89;100.00
76694;BME280;69667;52.136;5.424;2023-10-19T04:48:40;99231.34;;;11.84;100.00
76694;BME280;69667;52.136;5.424;2023-10-19T04:51:10;99230.50;;;11.84;100.00
76694;BME280;69667;52.136;5.424;2023-10-19T04:53:38;99231.69;;;11.81;100.00
76694;BME280;69667;52.136;5.424;2023-10-19T04:56:07;99235.22;;;11.82;100.00
76694;BME280;69667;52.136;5.424;2023-10-19T04:58:40;99233.34;;;11.82;100.00
76694;BME280;69667;52.136;5.424;2023-10-19T05:01:08;99232.50;;;11.82;100.00
76694;BME280;69667;52.136;5.424;2023-10-19T05:03:39;99238.78;;;11.90;100.00
76694;BME280;69667;52.136;5.424;2023-10-19T05:06:08;99235.63;;;11.95;100.00
76694;BME280;69667;52.136;5.424;2023-10-19T05:08:39;99235.28;;;11.98;100.00
76694;BME280;69667;52.136;5.424;2023-10-19T05:11:08;99244.91;;;12.00;100.00
76694;BME280;69667;52.136;5.424;2023-10-19T05:13:36;99242.91;;;12.02;100.00
76694;BME280;69667;52.136;5.424;2023-10-19T05:16:05;99243.78;;;12.11;100.00
76694;BME280;69667;52.136;5.424;2023-10-19T05:18:34;99245.34;;;12.13;100.00
76694;BME280;69667;52.136;5.424;2023-10-19T05:21:03;99248.16;;;12.12;100.00
76694;BME280;69667;52.136;5.424;2023-10-19T05:23:32;99254.09;;;12.15;100.00
76694;BME280;69667;52.136;5.424;2023-10-19T05:26:02;99251.22;;;12.17;100.00
76694;BME280;69667;52.136;5.424;2023-10-19T05:28:30;99252.94;;;12.18;100.00
76694;BME280;69667;52.136;5.424;2023-10-19T05:30:59;99258.19;;;12.19;100.00
76694;BME280;69667;52.136;5.424;2023-10-19T05:33:27;99263.25;;;12.22;100.00
76694;BME280;69667;52.136;5.424;2023-10-19T05:35:57;99261.75;;;12.28;100.00
76694;BME280;69667;52.136;5.424;2023-10-19T05:38:25;99264.47;;;12.28;100.00
76694;BME280;69667;52.136;5.424;2023-10-19T05:40:56;99261.25;;;12.32;100.00
76694;BME280;69667;52.136;5.424;2023-10-19T05:43:25;99265.19;;;12.38;100.00
76694;BME280;69667;52.136;5.424;2023-10-19T05:45:53;99266.84;;;12.39;100.00
76694;BME280;69667;52.136;5.424;2023-10-19T05:48:22;99275.31;;;12.44;100.00
76694;BME280;69667;52.136;5.424;2023-10-19T05:50:51;99270.78;;;12.44;100.00
76694;BME280;69667;52.136;5.424;2023-10-19T05:53:19;99272.44;;;12.45;100.00
76694;BME280;69667;52.136;5.424;2023-10-19T05:55:49;99279.88;;;12.43;100.00
76694;BME280;69667;52.136;5.424;2023-10-19T05:58:18;99280.41;;;12.47;100.00
76694;BME280;69667;52.136;5.424;2023-10-19T06:00:47;99277.22;;;12.51;100.00
76694;BME280;69667;52.136;5.424;2023-10-19T06:03:19;99272.63;;;12.52;100.00
76694;BME280;69667;52.136;5.424;2023-10-19T06:05:48;99279.06;;;12.51;100.00
76694;BME280;69667;52.136;5.424;2023-10-19T06:08:16;99284.16;;;12.54;100.00
76694;BME280;69667;52.136;5.424;2023-10-19T06:10:51;99283.16;;;12.55;100.00
76694;BME280;69667;52.136;5.424;2023-10-19T06:13:19;99281.09;;;12.57;100.00
76694;BME280;69667;52.136;5.424;2023-10-19T06:15:49;99282.13;;;12.56;100.00
76694;BME280;69667;52.136;5.424;2023-10-19T06:18:19;99274.69;;;12.58;100.00
76694;BME280;69667;52.136;5.424;2023-10-19T06:20:47;99276.38;;;12.59;100.00
76694;BME280;69667;52.136;5.424;2023-10-19T06:23:18;99287.03;;;12.60;100.00
76694;BME280;69667;52.136;5.424;2023-10-19T06:25:47;99277.22;;;12.59;100.00
76694;BME280;69667;52.136;5.424;2023-10-19T06:28:17;99278.75;;;12.62;100.00
76694;BME280;69667;52.136;5.424;2023-10-19T06:30:45;99282.13;;;12.64;100.00
76694;BME280;69667;52.136;5.424;2023-10-19T06:33:15;99283.84;;;12.65;100.00
76694;BME280;69667;52.136;5.424;2023-10-19T06:35:44;99288.41;;;12.64;100.00
76694;BME280;69667;52.136;5.424;2023-10-19T06:38:12;99283.69;;;12.66;100.00
76694;BME280;69667;52.136;5.424;2023-10-19T06:40:41;99285.69;;;12.64;100.00
76694;BME280;69667;52.136;5.424;2023-10-19T06:43:10;99286.84;;;12.62;100.00
76694;BME280;69667;52.136;5.424;2023-10-19T06:45:38;99292.44;;;12.60;100.00
76694;BME280;69667;52.136;5.424;2023-10-19T06:48:07;99295.50;;;12.57;100.00
76694;BME280;69667;52.136;5.424;2023-10-19T06:50:35;99296.34;;;12.58;100.00
76694;BME280;69667;52.136;5.424;2023-10-19T06:53:04;99294.31;;;12.60;100.00
76694;BME280;69667;52.136;5.424;2023-10-19T06:55:32;99300.41;;;12.62;100.00
76694;BME280;69667;52.136;5.424;2023-10-19T06:58:01;99312.59;;;12.66;100.00
76694;BME280;69667;52.136;5.424;2023-10-19T07:00:29;99317.69;;;12.69;100.00
76694;BME280;69667;52.136;5.424;2023-10-19T07:02:58;99319.38;;;12.70;100.00
76694;BME280;69667;52.136;5.424;2023-10-19T07:05:27;99316.34;;;12.73;100.00
76694;BME280;69667;52.136;5.424;2023-10-19T07:08:00;99322.44;;;12.75;100.00
76694;BME280;69667;52.136;5.424;2023-10-19T07:10:29;99326.66;;;12.77;100.00
76694;BME280;69667;52.136;5.424;2023-10-19T07:12:58;99324.47;;;12.81;100.00
76694;BME280;69667;52.136;5.424;2023-10-19T07:15:26;99331.41;;;12.84;100.00
76694;BME280;69667;52.136;5.424;2023-10-19T07:17:57;99332.94;;;12.86;100.00
76694;BME280;69667;52.136;5.424;2023-10-19T07:20:26;99332.44;;;12.91;100.00
76694;BME280;69667;52.136;5.424;2023-10-19T07:23:00;99330.41;;;12.93;100.00
76694;BME280;69667;52.136;5.424;2023-10-19T07:25:34;99324.66;;;12.96;100.00
76694;BME280;69667;52.136;5.424;2023-10-19T07:28:15;99334.31;;;12.98;100.00
76694;BME280;69667;52.136;5.424;2023-10-19T07:30:43;99334.00;;;13.01;100.00
76694;BME280;69667;52.136;5.424;2023-10-19T07:33:14;99329.47;;;13.02;100.00
76694;BME280;69667;52.136;5.424;2023-10-19T07:35:47;99335.34;;;13.05;100.00
76694;BME280;69667;52.136;5.424;2023-10-19T07:38:19;99343.34;;;13.07;100.00
76694;BME280;69667;52.136;5.424;2023-10-19T07:40:50;99334.88;;;13.10;100.00
76694;BME280;69667;52.136;5.424;2023-10-19T07:43:21;99334.19;;;13.16;100.00
76694;BME280;69667;52.136;5.424;2023-10-19T07:45:50;99339.44;;;13.17;100.00
76694;BME280;69667;52.136;5.424;2023-10-19T07:48:20;99341.16;;;13.18;100.00
76694;BME280;69667;52.136;5.424;2023-10-19T07:50:49;99339.78;;;13.22;100.00
76694;BME280;69667;52.136;5.424;2023-10-19T07:53:17;99335.91;;;13.25;100.00
76694;BME280;69667;52.136;5.424;2023-10-19T07:55:45;99338.09;;;13.29;100.00
76694;BME280;69667;52.136;5.424;2023-10-19T07:58:14;99334.03;;;13.33;100.00
76694;BME280;69667;52.136;5.424;2023-10-19T08:00:43;99337.75;;;13.32;100.00
76694;BME280;69667;52.136;5.424;2023-10-19T08:03:14;99338.59;;;13.33;100.00
76694;BME280;69667;52.136;5.424;2023-10-19T08:05:44;99343.16;;;13.32;100.00
76694;BME280;69667;52.136;5.424;2023-10-19T08:08:12;99348.25;;;13.35;100.00
76694;BME280;69667;52.136;5.424;2023-10-19T08:10:40;99341.66;;;13.38;100.00
76694;BME280;69667;52.136;5.424;2023-10-19T08:13:09;99334.22;;;13.40;100.00
76694;BME280;69667;52.136;5.424;2023-10-19T08:15:40;99334.72;;;13.43;100.00
76694;BME280;69667;52.136;5.424;2023-10-19T08:18:08;99326.25;;;13.46;100.00
76694;BME280;69667;52.136;5.424;2023-10-19T08:20:39;99329.63;;;13.48;100.00
76694;BME280;69667;52.136;5.424;2023-10-19T08:23:08;99326.56;;;13.51;100.00
76694;BME280;69667;52.136;5.424;2023-10-19T08:25:36;99335.03;;;13.56;100.00
76694;BME280;69667;52.136;5.424;2023-10-19T08:28:07;99327.41;;;13.60;100.00
76694;BME280;69667;52.136;5.424;2023-10-19T08:30:35;99335.03;;;13.64;100.00
76694;BME280;69667;52.136;5.424;2023-10-19T08:33:04;99335.34;;;13.69;100.00
76694;BME280;69667;52.136;5.424;2023-10-19T08:35:34;99326.69;;;13.74;100.00
76694;BME280;69667;52.136;5.424;2023-10-19T08:38:03;99330.59;;;13.79;100.00
76694;BME280;69667;52.136;5.424;2023-10-19T08:40:38;99328.19;;;13.84;100.00
76694;BME280;69667;52.136;5.424;2023-10-19T08:43:07;99326.84;;;13.88;100.00
76694;BME280;69667;52.136;5.424;2023-10-19T08:45:41;99328.00;;;13.94;100.00
76694;BME280;69667;52.136;5.424;2023-10-19T08:48:10;99318.50;;;13.98;100.00
76694;BME280;69667;52.136;5.424;2023-10-19T08:50:39;99316.97;;;14.04;100.00
76694;BME280;69667;52.136;5.424;2023-10-19T08:53:09;99323.53;;;14.09;100.00
76694;BME280;69667;52.136;5.424;2023-10-19T08:55:41;99323.03;;;14.14;100.00
76694;BME280;69667;52.136;5.424;2023-10-19T08:58:17;99322.69;;;14.17;100.00
76694;BME280;69667;52.136;5.424;2023-10-19T09:00:51;99316.91;;;14.20;100.00
76694;BME280;69667;52.136;5.424;2023-10-19T09:03:24;99311.78;;;14.25;100.00
76694;BME280;69667;52.136;5.424;2023-10-19T09:05:54;99315.41;;;14.25;100.00
76694;BME280;69667;52.136;5.424;2023-10-19T09:08:24;99319.75;;;14.34;100.00
76694;BME280;69667;52.136;5.424;2023-10-19T09:10:52;99309.69;;;14.43;100.00
76694;BME280;69667;52.136;5.424;2023-10-19T09:13:22;99318.78;;;14.58;100.00
76694;BME280;69667;52.136;5.424;2023-10-19T09:15:52;99316.00;;;14.96;100.00
76694;BME280;69667;52.136;5.424;2023-10-19T09:18:23;99313.75;;;15.82;100.00
76694;BME280;69667;52.136;5.424;2023-10-19T09:20:57;99307.84;;;15.93;100.00
76694;BME280;69667;52.136;5.424;2023-10-19T09:23:35;99304.75;;;15.82;100.00
76694;BME280;69667;52.136;5.424;2023-10-19T09:26:05;99302.66;;;15.69;100.00
76694;BME280;69667;52.136;5.424;2023-10-19T09:28:36;99306.31;;;15.62;100.00
76694;BME280;69667;52.136;5.424;2023-10-19T09:31:05;99312.22;;;15.65;100.00
76694;BME280;69667;52.136;5.424;2023-10-19T09:33:40;99306.41;;;15.68;100.00
76694;BME280;69667;52.136;5.424;2023-10-19T09:36:10;99309.44;;;15.73;100.00
76694;BME280;69667;52.136;5.424;2023-10-19T09:38:48;99312.16;;;15.73;100.00
76694;BME280;69667;52.136;5.424;2023-10-19T09:41:19;99314.78;;;15.67;100.00
76694;BME280;69667;52.136;5.424;2023-10-19T09:43:49;99309.41;;;15.59;100.00
76694;BME280;69667;52.136;5.424;2023-10-19T09:46:23;99303.31;;;15.57;100.00
76694;BME280;69667;52.136;5.424;2023-10-19T09:48:55;99306.03;;;15.57;100.00
76694;BME280;69667;52.136;5.424;2023-10-19T09:51:24;99305.16;;;15.56;100.00
76694;BME280;69667;52.136;5.424;2023-10-19T09:53:58;99298.69;;;15.57;100.00
76694;BME280;69667;52.136;5.424;2023-10-19T09:56:41;99295.25;;;15.78;100.00
76694;BME280;69667;52.136;5.424;2023-10-19T09:59:22;99292.09;;;17.25;100.00
76694;BME280;69667;52.136;5.424;2023-10-19T10:02:08;99269.84;;;19.25;100.00
76694;BME280;69667;52.136;5.424;2023-10-19T10:04:42;99265.84;;;20.69;100.00
76694;BME280;69667;52.136;5.424;2023-10-19T10:07:14;99264.81;;;19.93;100.00
76694;BME280;69667;52.136;5.424;2023-10-19T10:10:03;99267.38;;;18.56;100.00
76694;BME280;69667;52.136;5.424;2023-10-19T10:12:32;99279.69;;;17.71;100.00
76694;BME280;69667;52.136;5.424;2023-10-19T10:15:04;99279.81;;;17.14;100.00
76694;BME280;69667;52.136;5.424;2023-10-19T10:17:37;99288.06;;;16.79;100.00
76694;BME280;69667;52.136;5.424;2023-10-19T10:22:41;99291.88;;;16.19;100.00
76694;BME280;69667;52.136;5.424;2023-10-19T10:25:28;99294.44;;;16.06;100.00
76694;BME280;69667;52.136;5.424;2023-10-19T10:27:58;99295.47;;;16.05;100.00
76694;BME280;69667;52.136;5.424;2023-10-19T10:30:26;99295.84;;;16.17;100.00
76694;BME280;69667;52.136;5.424;2023-10-19T10:32:55;99306.81;;;16.23;100.00
76694;BME280;69667;52.136;5.424;2023-10-19T10:38:09;99283.22;;;16.45;100.00
76694;BME280;69667;52.136;5.424;2023-10-19T10:40:45;99273.47;;;16.51;100.00
76694;BME280;69667;52.136;5.424;2023-10-19T10:43:15;99278.16;;;16.57;100.00
76694;BME280;69667;52.136;5.424;2023-10-19T10:45:44;99266.59;;;16.55;100.00
76694;BME280;69667;52.136;5.424;2023-10-19T10:48:16;99270.09;;;16.49;100.00
76694;BME280;69667;52.136;5.424;2023-10-19T10:50:45;99271.41;;;16.38;100.00
76694;BME280;69667;52.136;5.424;2023-10-19T10:53:14;99260.81;;;16.28;100.00
76694;BME280;69667;52.136;5.424;2023-10-19T10:55:43;99257.44;;;16.26;100.00
76694;BME280;69667;52.136;5.424;2023-10-19T10:58:20;99253.38;;;16.22;100.00
76694;BME280;69667;52.136;5.424;2023-10-19T11:00:49;99253.56;;;16.21;100.00
76694;BME280;69667;52.136;5.424;2023-10-19T11:03:22;99243.16;;;16.24;100.00
76694;BME280;69667;52.136;5.424;2023-10-19T11:05:51;99244.09;;;16.31;100.00
76694;BME280;69667;52.136;5.424;2023-10-19T11:08:24;99247.16;;;16.43;100.00
76694;BME280;69667;52.136;5.424;2023-10-19T11:10:52;99247.53;;;16.55;100.00
76694;BME280;69667;52.136;5.424;2023-10-19T11:13:24;99239.22;;;16.63;100.00
76694;BME280;69667;52.136;5.424;2023-10-19T11:15:54;99240.16;;;16.70;100.00
76694;BME280;69667;52.136;5.424;2023-10-19T11:18:29;99238.81;;;16.80;100.00
76694;BME280;69667;52.136;5.424;2023-10-19T11:21:00;99233.28;;;16.95;100.00
76694;BME280;69667;52.136;5.424;2023-10-19T11:23:43;99251.72;;;16.93;100.00
76694;BME280;69667;52.136;5.424;2023-10-19T11:26:20;99244.31;;;16.87;100.00
76694;BME280;69667;52.136;5.424;2023-10-19T11:29:01;99236.34;;;16.85;100.00
76694;BME280;69667;52.136;5.424;2023-10-19T11:31:37;99240.09;;;16.84;100.00
76694;BME280;69667;52.136;5.424;2023-10-19T11:34:06;99231.72;;;16.86;100.00
76694;BME280;69667;52.136;5.424;2023-10-19T11:36:36;99226.63;;;16.97;100.00
76694;BME280;69667;52.136;5.424;2023-10-19T11:39:05;99229.50;;;17.17;100.00
76694;BME280;69667;52.136;5.424;2023-10-19T11:41:39;99236.22;;;17.42;100.00
76694;BME280;69667;52.136;5.424;2023-10-19T11:44:07;99242.53;;;17.70;100.00
76694;BME280;69667;52.136;5.424;2023-10-19T11:46:36;99229.91;;;17.97;100.00
76694;BME280;69667;52.136;5.424;2023-10-19T11:49:04;99224.69;;;18.08;100.00
76694;BME280;69667;52.136;5.424;2023-10-19T11:51:33;99225.31;;;18.04;100.00
76694;BME280;69667;52.136;5.424;2023-10-19T11:54:01;99221.97;;;18.08;100.00
76694;BME280;69667;52.136;5.424;2023-10-19T11:56:30;99218.41;;;18.14;100.00
76694;BME280;69667;52.136;5.424;2023-10-19T11:58:58;99212.28;;;17.99;100.00
76694;BME280;69667;52.136;5.424;2023-10-19T12:01:26;99209.00;;;17.83;100.00
76694;BME280;69667;52.136;5.424;2023-10-19T12:03:55;99213.22;;;17.79;100.00
76694;BME280;69667;52.136;5.424;2023-10-19T12:06:23;99210.53;;;17.92;100.00
76694;BME280;69667;52.136;5.424;2023-10-19T12:08:51;99208.25;;;17.95;100.00
76694;BME280;69667;52.136;5.424;2023-10-19T12:11:22;99199.41;;;17.93;100.00
76694;BME280;69667;52.136;5.424;2023-10-19T12:13:51;99200.81;;;17.83;100.00
76694;BME280;69667;52.136;5.424;2023-10-19T12:16:20;99196.97;;;17.64;100.00
76694;BME280;69667;52.136;5.424;2023-10-19T12:18:51;99198.69;;;17.44;100.00
76694;BME280;69667;52.136;5.424;2023-10-19T12:21:19;99202.13;;;17.31;100.00
76694;BME280;69667;52.136;5.424;2023-10-19T12:23:55;99208.97;;;17.21;100.00
76694;BME280;69667;52.136;5.424;2023-10-19T12:26:24;99205.72;;;17.11;100.00
76694;BME280;69667;52.136;5.424;2023-10-19T12:28:52;99202.19;;;17.10;100.00
76694;BME280;69667;52.136;5.424;2023-10-19T12:31:21;99202.38;;;17.09;100.00
76694;BME280;69667;52.136;5.424;2023-10-19T12:33:50;99187.06;;;17.08;100.00
76694;BME280;69667;52.136;5.424;2023-10-19T12:36:20;99193.09;;;17.03;100.00
76694;BME280;69667;52.136;5.424;2023-10-19T12:39:02;99179.03;;;17.00;100.00
76694;BME280;69667;52.136;5.424;2023-10-19T12:41:34;99183.63;;;16.99;100.00
76694;BME280;69667;52.136;5.424;2023-10-19T12:44:02;99183.16;;;16.96;100.00
76694;BME280;69667;52.136;5.424;2023-10-19T12:46:39;99194.66;;;16.91;100.00
76694;BME280;69667;52.136;5.424;2023-10-19T12:49:08;99187.09;;;16.87;100.00
76694;BME280;69667;52.136;5.424;2023-10-19T12:51:41;99171.34;;;16.82;100.00
76694;BME280;69667;52.136;5.424;2023-10-19T12:54:11;99188.50;;;16.83;100.00
76694;BME280;69667;52.136;5.424;2023-10-19T12:56:41;99181.38;;;16.82;100.00
76694;BME280;69667;52.136;5.424;2023-10-19T12:59:09;99168.78;;;16.81;100.00
76694;BME280;69667;52.136;5.424;2023-10-19T13:01:38;99173.16;;;16.75;100.00
76694;BME280;69667;52.136;5.424;2023-10-19T13:04:07;99172.03;;;16.70;100.00
76694;BME280;69667;52.136;5.424;2023-10-19T13:06:45;99170.56;;;16.67;100.00
76694;BME280;69667;52.136;5.424;2023-10-19T13:09:20;99181.41;;;16.61;100.00
76694;BME280;69667;52.136;5.424;2023-10-19T13:11:59;99195.31;;;16.51;100.00
76694;BME280;69667;52.136;5.424;2023-10-19T13:14:28;99193.84;;;16.49;100.00
76694;BME280;69667;52.136;5.424;2023-10-19T13:16:56;99187.63;;;16.40;100.00